Aérodrome :
LOGIN :

S'inscrire | Disclaimer

   EN    FR    IT 

 










Légende :    VFR   VFR Marginal   IFR   IFR Intensif   IFR Très Intensif
Visi : 
Plafond : 
>= 8 km
>= 3000ft
5 à 8 km
1000 à 3000 ft
1500m à 5 km
500 à 1000 ft
800 à 1500m
200 à 500 ft
< 800m
< 200 ft
Symboles :   Orages  Brouillard  Fortes neiges  Fortes précipitations  Vent > 20 kt
SIGMETs :   Divers  Orages  Givrage  Turbulence  Onde Orograph.  Cendres Volcan.







- Altitude de l'aérodrome : 844 ft
- Code IATA : OSR


LKMT - Ostrava-Mosnov

DERNIER METAR :
  • 232030Z 15003KT 130V190 CAVOK 15/13 Q1013 NOSIG

METARs EXPIRÉS :
  • 232000Z 12003KT 070V170 CAVOK 15/13 Q1013 NOSIG
  • 231930Z 15003KT 9999 -RA NSC 15/13 Q1014 NOSIG
  • 231900Z 13004KT 9999 -RA NSC 15/13 Q1014 NOSIG
  • 231830Z 20004KT 150V220 9999 -RA NSC 16/13 Q1014 NOSIG
  • 231800Z 11003KT 060V140 CAVOK 16/12 Q1014 NOSIG

TAF TAF LKMT
Valide du 23 à 18h jusqu'au 25 à 00h UTC


231700Z 2318/2500 22012KT 9999 SCT035
TEMPO 2318/2403 8000 SHRA BKN035
PROB30
TEMPO 2318/2402 24020G38KT 3000 TSRA BKN030CB
PROB40
TEMPO 2408/2418 9000 SHRA BKN035TCU
BECMG 2418/2420 20005KT
Pas de NOTAMs connus pour ce terrain.
2 SIGMETs publiés pour la FIR Praha (LKAA) :
 
Orages en lignes de grains
LKAA SIGMET 9 VALID 231659/232053 LKPW
LKAA PRAHA FIR SQL TS OBS NW OF LINE N4943 E01227 - N5044 E01542 TOP FL350 MOV E WKN=
Annulation du SIGMET 9 
LKAA SIGMET 10 VALID 231840/232053 LKPW
LKAA PRAHA FIR CNL SIGMET 9 231659/232053=



MET'MAP, la Météo Aéronautique d'un coup d'oeil ! - Copyright ORBIFLY Décembre 2007 - Disclaimer

ORBIFLY MET'MAP TEAM :

Programmation & Développement : Alexandra Zaïnal
Conception & Développement : Baudouin d'Aumeries
Co-Programmation & Développement : Marc-Olivier Méhu
Soutien technique & logistique : Manuel Goepfert

Contact : metmap@orbifly.com




SOURCES & CREDITS :

   NOAA